Time;durP1;ratioP1;P1;durP2;ratioP2;P2;SDS_P1;SDS_P2;PMS_P1;PMS_P2;Temp;Humidity;BMP_temperature;BMP_pressure;BME280_temperature;BME280_humidity;BME280_pressure;Samples;Min_cycle;Max_cycle;Signal;HPM_P1;HPM_P2
2022/11/25 00:00:51;;;;;;;14.13;4.43;;;9.90;78.10;;;;;;4997801;28;20102;-57
2022/11/25 00:03:17;;;;;;;12.40;4.50;;;9.90;77.50;;;;;;4994996;28;20034;-56
2022/11/25 00:05:43;;;;;;;11.60;3.97;;;9.90;77.80;;;;;;4991818;28;20033;-58
2022/11/25 00:08:08;;;;;;;18.80;6.03;;;9.90;77.30;;;;;;4994492;28;20030;-54
2022/11/25 00:10:34;;;;;;;10.10;4.40;;;10.00;77.20;;;;;;4998428;28;20296;-53
2022/11/25 00:12:59;;;;;;;10.33;3.33;;;9.90;77.30;;;;;;4990064;28;20085;-53
2022/11/25 00:15:25;;;;;;;12.90;3.90;;;10.00;77.80;;;;;;4990475;28;20281;-52
2022/11/25 00:17:51;;;;;;;15.13;3.83;;;10.00;77.20;;;;;;4997297;28;20527;-51
2022/11/25 00:20:21;;;;;;;9.57;3.22;;;10.00;77.40;;;;;;4995522;28;20022;-52
2022/11/25 00:22:46;;;;;;;11.60;4.20;;;10.00;77.90;;;;;;4991587;28;20046;-52
2022/11/25 00:25:12;;;;;;;14.03;3.87;;;10.00;78.40;;;;;;4991813;28;20027;-55
2022/11/25 00:27:38;;;;;;;14.10;4.23;;;10.00;77.20;;;;;;4992031;28;20026;-53
2022/11/25 00:30:05;;;;;;;11.70;4.33;;;9.90;76.00;;;;;;4988315;28;20458;-49
2022/11/25 00:32:31;;;;;;;18.02;4.85;;;9.90;77.10;;;;;;4988057;28;20085;-62
2022/11/25 00:34:56;;;;;;;14.73;5.03;;;9.90;77.80;;;;;;4995586;28;20486;-64
2022/11/25 00:37:22;;;;;;;18.20;5.00;;;9.90;78.80;;;;;;4993313;28;20034;-64
2022/11/25 00:39:48;;;;;;;11.27;4.27;;;9.90;78.40;;;;;;4999835;28;20026;-62
2022/11/25 00:45:00;;;;;;;18.92;4.97;;;9.90;77.90;;;;;;4993394;28;20518;-67
2022/11/25 00:47:26;;;;;;;17.95;4.72;;;9.80;79.10;;;;;;4994350;28;20034;-68
2022/11/25 00:49:53;;;;;;;16.77;4.30;;;9.90;79.40;;;;;;4998231;28;20646;-64
2022/11/25 00:52:24;;;;;;;14.60;5.47;;;9.90;78.80;;;;;;4993830;28;20037;-63
2022/11/25 00:54:51;;;;;;;14.45;4.13;;;9.80;79.40;;;;;;4999652;28;20109;-67
2022/11/25 00:57:17;;;;;;;;;;;9.80;79.00;;;;;;4990280;28;20026;-50
2022/11/25 00:59:43;;;;;;;8.32;3.92;;;9.80;79.40;;;;;;5000660;28;19905;-48
2022/11/25 01:02:11;;;;;;;13.60;3.87;;;9.80;79.90;;;;;;4987467;28;20407;-49
2022/11/25 01:04:36;;;;;;;11.70;3.50;;;9.70;80.10;;;;;;5000709;28;20108;-50
2022/11/25 01:07:02;;;;;;;11.77;2.95;;;9.80;80.30;;;;;;4989324;28;20034;-51
2022/11/25 01:09:29;;;;;;;12.65;3.15;;;9.80;79.50;;;;;;4996287;28;20057;-52
2022/11/25 01:11:55;;;;;;;16.63;3.28;;;9.80;79.00;;;;;;4986751;28;20069;-50
2022/11/25 01:14:22;;;;;;;13.70;3.50;;;9.80;78.40;;;;;;4994380;28;20561;-53
2022/11/25 01:16:49;;;;;;;11.57;2.88;;;9.90;79.20;;;;;;4988903;28;20503;-50
2022/11/25 01:19:15;;;;;;;12.13;3.58;;;9.90;79.60;;;;;;4991554;28;20498;-55
2022/11/25 01:21:40;;;;;;;12.30;2.97;;;9.90;78.80;;;;;;4991706;28;20474;-48
2022/11/25 01:24:07;;;;;;;10.90;2.77;;;9.90;78.90;;;;;;4991875;28;20057;-61
2022/11/25 01:26:34;;;;;;;11.52;3.17;;;9.90;78.40;;;;;;4996780;28;20336;-53
2022/11/25 01:29:05;;;;;;;7.68;2.58;;;10.00;78.30;;;;;;4990528;28;20042;-61
2022/11/25 01:31:33;;;;;;;12.82;3.25;;;10.00;78.60;;;;;;4992697;28;20033;-59
2022/11/25 01:34:07;;;;;;;12.73;3.88;;;10.00;77.00;;;;;;4985136;28;20406;-57
2022/11/25 01:36:33;;;;;;;8.68;2.80;;;10.00;78.30;;;;;;4993696;28;20026;-57
2022/11/25 01:39:00;;;;;;;13.27;3.42;;;10.00;78.40;;;;;;4992455;28;20034;-61
2022/11/25 01:41:28;;;;;;;12.20;2.78;;;10.00;78.10;;;;;;4994849;28;20046;-48
2022/11/25 01:44:02;;;;;;;10.02;3.03;;;10.00;79.00;;;;;;4990268;28;20105;-67
2022/11/25 01:46:38;;;;;;;18.05;5.15;;;10.10;79.50;;;;;;4997881;28;20022;-60
2022/11/25 01:49:09;;;;;;;13.00;4.40;;;10.00;77.10;;;;;;4988351;28;20029;-59
2022/11/25 01:52:33;;;;;;;9.40;3.60;;;10.00;77.40;;;;;;4990606;28;20038;-64
2022/11/25 01:55:08;;;;;;;10.68;3.85;;;9.90;77.30;;;;;;4993158;28;20598;-68
2022/11/25 01:57:47;;;;;;;12.80;3.95;;;9.90;78.00;;;;;;4999102;28;20054;-61
2022/11/25 02:00:13;;;;;;;18.67;4.85;;;9.90;78.70;;;;;;4987249;28;20065;-67
2022/11/25 02:02:39;;;;;;;11.43;4.20;;;9.90;78.80;;;;;;4993186;28;20438;-62
2022/11/25 02:05:11;;;;;;;10.33;4.20;;;9.80;79.00;;;;;;4994908;28;20104;-55
2022/11/25 02:07:40;;;;;;;9.82;4.03;;;9.70;79.10;;;;;;4988778;28;20029;-55
2022/11/25 02:10:22;;;;;;;10.02;4.45;;;9.70;79.00;;;;;;4987216;28;20027;-50
2022/11/25 02:12:49;;;;;;;10.75;4.03;;;9.80;79.40;;;;;;4989142;28;20029;-57
2022/11/25 02:15:15;;;;;;;14.57;4.97;;;9.70;79.70;;;;;;4992940;28;20045;-58
2022/11/25 02:17:42;;;;;;;13.65;4.25;;;9.70;80.40;;;;;;4983093;28;20034;-53
2022/11/25 02:20:11;;;;;;;10.50;3.95;;;9.70;80.50;;;;;;4988800;28;20506;-56
2022/11/25 02:22:57;;;;;;;14.65;4.32;;;9.60;80.50;;;;;;4997335;28;20401;-51
2022/11/25 02:25:35;;;;;;;12.80;4.28;;;9.60;80.60;;;;;;4992909;28;20081;-50
2022/11/25 02:28:14;;;;;;;13.38;4.07;;;9.60;80.20;;;;;;4986282;28;20039;-57
2022/11/25 02:30:41;;;;;;;11.43;5.00;;;9.60;80.60;;;;;;4989624;28;20453;-48
2022/11/25 02:33:06;;;;;;;;;;;9.50;79.70;;;;;;4993451;28;20022;-55
2022/11/25 02:35:33;;;;;;;16.13;6.25;;;9.50;80.10;;;;;;4996441;28;19977;-58
2022/11/25 02:38:12;;;;;;;18.10;4.93;;;9.60;80.50;;;;;;4990488;28;20023;-58
2022/11/25 02:40:56;;;;;;;14.68;4.40;;;9.60;81.20;;;;;;4995389;28;20531;-60
2022/11/25 02:43:22;;;;;;;13.20;4.63;;;9.50;80.50;;;;;;4992433;28;20077;-54
2022/11/25 02:45:56;;;;;;;13.83;4.43;;;9.50;81.20;;;;;;4995061;28;20029;-60
2022/11/25 02:48:22;;;;;;;12.13;5.13;;;9.50;81.00;;;;;;4994192;28;20040;-61
2022/11/25 02:50:48;;;;;;;10.70;4.85;;;9.40;80.70;;;;;;4994935;28;20494;-57
2022/11/25 02:53:15;;;;;;;14.88;3.70;;;9.40;81.10;;;;;;4993879;28;20093;-59
2022/11/25 02:55:41;;;;;;;15.55;4.75;;;9.50;80.60;;;;;;4987495;28;20034;-59
2022/11/25 02:58:06;;;;;;;14.65;3.25;;;9.40;80.80;;;;;;4996350;28;20030;-68
2022/11/25 03:00:32;;;;;;;18.77;5.03;;;9.40;80.90;;;;;;4995264;28;20030;-61
2022/11/25 03:02:58;;;;;;;21.23;4.25;;;9.40;80.90;;;;;;4999245;28;20026;-66
2022/11/25 03:05:24;;;;;;;11.50;3.30;;;9.40;80.50;;;;;;4992934;28;20395;-66
2022/11/25 03:07:50;;;;;;;11.18;2.92;;;9.40;80.20;;;;;;4987660;28;20028;-68
2022/11/25 03:10:15;;;;;;;12.27;4.00;;;9.40;80.80;;;;;;4992281;28;20034;-54
2022/11/25 03:12:41;;;;;;;16.93;5.67;;;9.40;80.70;;;;;;4999209;28;20013;-51
2022/11/25 03:15:07;;;;;;;11.33;5.43;;;9.40;80.60;;;;;;4990520;28;20038;-51
2022/11/25 03:17:33;;;;;;;22.98;5.47;;;9.30;81.10;;;;;;4988939;28;20026;-54
2022/11/25 03:19:58;;;;;;;11.50;5.00;;;9.30;81.10;;;;;;4988813;28;20048;-56
2022/11/25 03:22:24;;;;;;;10.17;4.57;;;9.30;80.40;;;;;;4994935;28;20497;-57
2022/11/25 03:24:50;;;;;;;11.93;4.50;;;9.20;80.30;;;;;;4996496;28;20113;-53
2022/11/25 03:27:15;;;;;;;12.80;4.83;;;9.10;80.40;;;;;;4990709;28;20030;-54
2022/11/25 03:29:41;;;;;;;16.90;4.87;;;9.10;80.30;;;;;;4997681;28;20033;-51
2022/11/25 03:32:07;;;;;;;12.20;4.20;;;9.10;80.20;;;;;;4993174;28;20022;-48
2022/11/25 03:34:32;;;;;;;13.33;4.23;;;9.10;79.90;;;;;;4987176;28;20117;-50
2022/11/25 03:36:58;;;;;;;16.57;4.70;;;9.10;80.20;;;;;;4990235;28;20487;-49
2022/11/25 03:39:24;;;;;;;8.90;4.47;;;9.10;80.80;;;;;;4997683;28;20034;-56
2022/11/25 03:41:49;;;;;;;11.03;4.40;;;9.00;80.90;;;;;;4996324;28;20284;-66
2022/11/25 03:44:15;;;;;;;14.07;4.67;;;9.00;80.90;;;;;;4988034;28;20026;-57
2022/11/25 03:46:41;;;;;;;12.90;4.37;;;9.00;81.20;;;;;;4992601;28;20038;-54
2022/11/25 03:49:06;;;;;;;15.63;5.07;;;9.00;81.00;;;;;;4998259;28;20572;-62
2022/11/25 03:51:32;;;;;;;10.73;4.47;;;8.90;81.00;;;;;;4989034;28;20038;-54
2022/11/25 03:53:57;;;;;;;20.37;7.63;;;8.80;81.50;;;;;;4992547;28;20497;-57
2022/11/25 03:56:23;;;;;;;15.03;5.90;;;8.80;81.30;;;;;;4986189;28;20049;-57
2022/11/25 03:58:49;;;;;;;15.73;6.73;;;8.80;81.00;;;;;;4997151;28;20029;-57
2022/11/25 04:01:14;;;;;;;16.30;6.07;;;8.80;81.10;;;;;;4984382;28;20089;-56
2022/11/25 04:03:40;;;;;;;12.73;5.27;;;8.60;81.80;;;;;;4993140;28;20026;-63
2022/11/25 04:06:05;;;;;;;15.00;5.47;;;8.60;81.90;;;;;;4991936;28;20033;-66
2022/11/25 04:08:31;;;;;;;12.00;5.13;;;8.60;82.00;;;;;;4987851;28;20061;-56
2022/11/25 04:10:57;;;;;;;12.40;5.63;;;8.60;81.80;;;;;;5007052;28;20097;-64
2022/11/25 04:13:22;;;;;;;16.97;5.40;;;8.60;81.70;;;;;;4999303;28;20113;-67
2022/11/25 04:15:49;;;;;;;14.37;3.80;;;8.60;81.20;;;;;;4999546;28;20118;-50
2022/11/25 04:18:17;;;;;;;46.15;24.10;;;8.50;81.40;;;;;;4998170;28;20035;-53
2022/11/25 04:20:43;;;;;;;46.40;23.73;;;8.50;81.30;;;;;;4992207;28;20521;-53
2022/11/25 04:23:09;;;;;;;75.75;40.72;;;8.40;81.40;;;;;;4991900;28;20766;-54
2022/11/25 04:25:36;;;;;;;38.35;18.50;;;8.40;80.90;;;;;;5009356;28;20026;-48
2022/11/25 04:28:03;;;;;;;36.63;18.10;;;8.40;80.90;;;;;;4990761;28;20102;-59
2022/11/25 04:30:28;;;;;;;31.98;15.73;;;8.30;80.90;;;;;;5003937;28;20462;-55
2022/11/25 04:32:54;;;;;;;30.43;12.67;;;8.30;81.30;;;;;;4992600;28;20088;-58
2022/11/25 04:35:19;;;;;;;21.37;9.30;;;8.20;81.20;;;;;;5004345;28;20096;-55
2022/11/25 04:37:45;;;;;;;17.90;7.13;;;8.20;81.60;;;;;;4997744;28;20022;-54
2022/11/25 04:40:11;;;;;;;20.27;8.17;;;8.10;81.80;;;;;;4996278;28;20136;-51
2022/11/25 04:42:38;;;;;;;23.58;7.68;;;8.00;81.70;;;;;;4998500;28;20281;-49
2022/11/25 04:45:09;;;;;;;19.65;5.90;;;8.00;81.90;;;;;;5003107;28;20061;-50
2022/11/25 04:47:36;;;;;;;22.38;6.18;;;7.90;82.50;;;;;;4996091;28;20506;-55
2022/11/25 04:50:02;;;;;;;16.38;5.50;;;7.90;82.50;;;;;;4987214;28;20030;-56
2022/11/25 04:52:28;;;;;;;20.67;7.25;;;7.90;82.50;;;;;;4996301;28;20026;-54
2022/11/25 04:54:54;;;;;;;20.90;9.80;;;7.80;81.90;;;;;;4998275;28;20037;-59
2022/11/25 04:57:20;;;;;;;17.83;7.03;;;7.90;82.20;;;;;;4996966;28;20030;-55
2022/11/25 04:59:45;;;;;;;23.08;7.30;;;7.80;82.20;;;;;;4995398;28;20372;-54
2022/11/25 05:02:13;;;;;;;19.03;7.30;;;7.70;82.00;;;;;;4997636;28;20122;-60
2022/11/25 05:04:39;;;;;;;20.08;5.55;;;7.70;82.10;;;;;;5000536;28;20033;-59
2022/11/25 05:07:04;;;;;;;11.23;5.13;;;7.70;82.40;;;;;;4995997;28;20080;-58
2022/11/25 05:09:31;;;;;;;14.73;4.50;;;7.70;82.40;;;;;;4993883;28;20030;-59
2022/11/25 05:11:56;;;;;;;24.45;8.20;;;7.70;82.40;;;;;;4993740;28;20517;-61
2022/11/25 05:14:24;;;;;;;23.40;9.13;;;7.60;82.40;;;;;;4993295;28;20129;-62
2022/11/25 05:16:50;;;;;;;16.60;7.63;;;7.60;82.30;;;;;;4996032;28;20112;-57
2022/11/25 05:19:15;;;;;;;14.75;6.75;;;7.40;83.00;;;;;;4991893;28;20102;-67
2022/11/25 05:21:41;;;;;;;21.03;6.47;;;7.40;83.00;;;;;;4993387;28;20018;-52
2022/11/25 05:24:07;;;;;;;19.70;6.30;;;7.40;83.10;;;;;;4992484;28;20497;-51
2022/11/25 05:26:32;;;;;;;12.47;5.27;;;7.50;82.70;;;;;;4995666;28;20499;-50
2022/11/25 05:28:58;;;;;;;12.77;5.00;;;7.40;83.00;;;;;;4994058;28;20070;-48
2022/11/25 05:31:23;;;;;;;11.07;4.63;;;7.40;83.10;;;;;;4993445;28;20034;-49
2022/11/25 05:33:49;;;;;;;13.23;5.17;;;7.40;83.50;;;;;;4994356;28;20402;-50
2022/11/25 05:36:15;;;;;;;20.60;6.93;;;7.40;83.20;;;;;;4990006;28;20039;-51
2022/11/25 05:38:41;;;;;;;16.13;5.17;;;7.40;82.90;;;;;;4998083;28;20018;-51
2022/11/25 05:41:09;;;;;;;12.07;5.27;;;7.30;83.10;;;;;;4999641;28;20266;-48
2022/11/25 05:43:35;;;;;;;15.18;5.13;;;7.40;82.90;;;;;;4995198;28;20037;-48
2022/11/25 05:46:08;;;;;;;10.82;5.05;;;7.40;82.50;;;;;;4989467;28;20046;-49
2022/11/25 05:48:34;;;;;;;11.70;5.03;;;7.30;83.30;;;;;;4994536;28;20038;-48
2022/11/25 05:51:01;;;;;;;16.02;5.95;;;7.30;84.00;;;;;;4990057;28;20037;-51
2022/11/25 05:53:27;;;;;;;11.38;4.43;;;7.30;84.10;;;;;;4996402;28;20046;-48
2022/11/25 05:55:59;;;;;;;15.48;4.50;;;7.30;83.80;;;;;;4995106;28;20034;-49
2022/11/25 05:58:24;;;;;;;15.68;4.93;;;7.40;83.60;;;;;;4990379;28;20148;-68
2022/11/25 06:00:51;;;;;;;12.07;4.43;;;7.40;83.40;;;;;;4995531;28;20121;-51
2022/11/25 06:03:16;;;;;;;11.52;4.43;;;7.40;83.20;;;;;;4995546;28;20023;-61
2022/11/25 06:05:43;;;;;;;11.70;4.50;;;7.50;82.80;;;;;;4987881;28;20501;-62
2022/11/25 06:08:08;;;;;;;16.15;4.22;;;7.50;82.60;;;;;;4987866;28;20957;-63
2022/11/25 06:10:38;;;;;;;14.80;4.33;;;7.50;82.30;;;;;;4997518;28;20124;-67
2022/11/25 06:13:03;;;;;;;13.70;4.80;;;7.60;82.50;;;;;;4987799;28;20499;-67
2022/11/25 06:15:29;;;;;;;14.10;5.10;;;7.60;81.90;;;;;;4990178;28;20074;-57
2022/11/25 06:17:55;;;;;;;14.03;4.97;;;7.60;81.70;;;;;;4993993;28;20414;-65
2022/11/25 06:20:20;;;;;;;13.40;4.30;;;7.60;81.60;;;;;;4989872;28;20034;-64
2022/11/25 06:22:46;;;;;;;9.30;4.67;;;7.50;81.80;;;;;;4995254;28;20023;-63
2022/11/25 06:25:11;;;;;;;11.73;4.50;;;7.40;82.00;;;;;;4988673;28;20451;-66
2022/11/25 06:27:37;;;;;;;22.63;5.20;;;7.40;81.90;;;;;;4997673;28;20072;-51
2022/11/25 06:30:03;;;;;;;13.47;5.27;;;7.50;81.90;;;;;;4992879;28;20153;-58
2022/11/25 06:32:29;;;;;;;14.85;5.93;;;7.50;81.80;;;;;;4992599;28;20172;-57
2022/11/25 06:34:54;;;;;;;17.27;5.87;;;7.40;82.00;;;;;;4988152;28;20129;-52
2022/11/25 06:37:20;;;;;;;17.77;5.23;;;7.40;81.70;;;;;;4995382;28;20474;-59
2022/11/25 06:39:46;;;;;;;15.33;6.00;;;7.40;81.80;;;;;;4995498;28;20027;-48
2022/11/25 06:42:11;;;;;;;18.52;6.72;;;7.30;81.80;;;;;;4990952;28;20098;-47
2022/11/25 06:44:37;;;;;;;20.93;6.20;;;7.30;82.40;;;;;;4992465;28;20053;-60
2022/11/25 06:47:03;;;;;;;19.23;7.03;;;7.20;82.50;;;;;;4994346;28;20511;-48
2022/11/25 06:49:28;;;;;;;14.00;6.03;;;7.20;82.70;;;;;;4987081;28;20415;-50
2022/11/25 06:51:54;;;;;;;13.23;5.87;;;7.30;82.70;;;;;;4996383;28;20029;-65
2022/11/25 06:54:20;;;;;;;29.90;8.10;;;7.30;82.50;;;;;;4992637;28;20034;-61
2022/11/25 06:56:50;;;;;;;17.00;6.50;;;7.30;82.60;;;;;;4987292;28;20097;-58
2022/11/25 06:59:17;;;;;;;18.40;6.70;;;7.30;82.80;;;;;;4987072;28;20570;-58
2022/11/25 07:01:42;;;;;;;19.27;6.00;;;7.40;82.80;;;;;;4993733;28;20022;-68
2022/11/25 07:04:08;;;;;;;16.87;6.07;;;7.40;82.90;;;;;;4993372;28;20033;-63
2022/11/25 07:06:34;;;;;;;18.63;6.37;;;7.40;83.00;;;;;;4995256;28;20085;-62
2022/11/25 07:09:00;;;;;;;14.70;5.75;;;7.40;83.00;;;;;;4996698;28;20056;-67
2022/11/25 07:11:31;;;;;;;14.23;5.80;;;7.40;82.70;;;;;;4990904;28;20030;-64
2022/11/25 07:14:05;;;;;;;13.35;5.68;;;7.40;82.80;;;;;;4987662;28;20034;-63
2022/11/25 07:16:32;;;;;;;18.05;7.00;;;7.40;82.70;;;;;;4991489;28;20035;-65
2022/11/25 07:19:00;;;;;;;22.17;8.35;;;7.30;82.70;;;;;;4987184;28;20022;-77
2022/11/25 07:21:28;;;;;;;24.17;7.95;;;7.20;82.90;;;;;;4991738;28;20042;-68
2022/11/25 07:23:55;;;;;;;14.52;7.22;;;7.20;83.20;;;;;;4987729;28;20030;-75
2022/11/25 07:26:23;;;;;;;16.55;7.35;;;7.10;83.10;;;;;;4987451;28;20512;-72
2022/11/25 07:28:50;;;;;;;28.48;7.43;;;7.10;83.40;;;;;;4984522;28;20063;-64
2022/11/25 07:31:23;;;;;;;18.30;6.88;;;7.10;83.20;;;;;;4983945;28;20228;-72
2022/11/25 07:33:54;;;;;;;20.63;7.15;;;7.10;83.90;;;;;;4982895;28;20038;-59
2022/11/25 07:36:21;;;;;;;19.63;5.82;;;7.30;83.30;;;;;;4984128;28;20042;-53
2022/11/25 07:38:47;;;;;;;12.18;5.78;;;7.40;83.10;;;;;;4981090;28;20034;-53
2022/11/25 07:41:21;;;;;;;18.45;6.35;;;7.50;83.10;;;;;;4986780;28;20034;-66
2022/11/25 07:43:51;;;;;;;16.13;6.28;;;7.50;83.20;;;;;;4988067;28;20112;-72
2022/11/25 07:46:20;;;;;;;14.00;6.97;;;7.60;82.90;;;;;;4990040;28;20034;-51
2022/11/25 07:48:46;;;;;;;24.30;7.07;;;7.60;82.60;;;;;;4994704;28;20476;-50
2022/11/25 07:51:28;;;;;;;15.80;5.90;;;7.60;83.70;;;;;;4990124;28;20038;-58
2022/11/25 07:53:55;;;;;;;13.25;6.53;;;7.70;83.10;;;;;;4988842;28;20030;-55
2022/11/25 07:56:21;;;;;;;21.58;6.70;;;7.70;82.50;;;;;;4992838;28;20050;-55
2022/11/25 07:58:48;;;;;;;19.50;6.65;;;7.80;82.50;;;;;;4992379;28;20033;-52
2022/11/25 08:01:14;;;;;;;14.93;5.50;;;7.90;82.10;;;;;;4991139;28;20415;-52
2022/11/25 08:03:41;;;;;;;15.15;5.93;;;7.90;82.20;;;;;;4989976;28;20097;-52
2022/11/25 08:06:10;;;;;;;16.25;6.63;;;8.00;81.40;;;;;;4988902;28;20025;-59
2022/11/25 08:08:37;;;;;;;15.05;6.90;;;8.00;81.30;;;;;;4989380;28;20037;-52
2022/11/25 08:11:15;;;;;;;20.65;7.50;;;8.10;81.40;;;;;;4997668;28;20084;-53
2022/11/25 08:13:41;;;;;;;18.55;7.00;;;8.10;80.30;;;;;;4987520;28;20033;-50
2022/11/25 08:16:07;;;;;;;20.77;6.88;;;8.10;81.70;;;;;;4990574;28;20082;-53
2022/11/25 08:18:33;;;;;;;;;;;8.10;82.10;;;;;;4992552;28;20044;-60
2022/11/25 08:21:01;;;;;;;20.55;6.13;;;8.10;82.50;;;;;;4990501;28;19910;-72
2022/11/25 08:23:27;;;;;;;17.85;7.03;;;8.20;81.80;;;;;;4987629;28;20915;-73
2022/11/25 08:25:52;;;;;;;16.95;6.68;;;8.20;82.20;;;;;;4997989;28;20030;-63
2022/11/25 08:28:18;;;;;;;16.35;7.45;;;8.20;82.20;;;;;;4987765;28;20042;-66
2022/11/25 08:30:44;;;;;;;21.43;8.20;;;8.20;82.10;;;;;;4996107;28;20050;-68
2022/11/25 08:33:10;;;;;;;21.37;8.83;;;8.20;81.70;;;;;;4999953;28;20272;-68
2022/11/25 08:35:38;;;;;;;16.50;7.07;;;8.20;81.90;;;;;;4988297;28;20042;-71
2022/11/25 08:38:05;;;;;;;23.40;8.70;;;8.30;81.30;;;;;;4983896;28;20486;-69
2022/11/25 08:40:32;;;;;;;17.63;7.80;;;8.40;81.10;;;;;;4985655;28;20106;-62
2022/11/25 08:42:58;;;;;;;18.95;8.48;;;8.40;81.30;;;;;;4998653;28;20022;-67
2022/11/25 08:45:23;;;;;;;19.47;8.50;;;8.50;81.40;;;;;;4994318;28;20113;-63
2022/11/25 08:47:49;;;;;;;27.30;7.43;;;8.60;81.10;;;;;;4992694;28;20054;-70
2022/11/25 08:50:15;;;;;;;19.90;7.33;;;8.60;82.00;;;;;;5000389;28;20081;-56
2022/11/25 08:52:41;;;;;;;18.77;7.30;;;8.70;81.80;;;;;;4985431;28;20490;-66
2022/11/25 08:55:08;;;;;;;14.77;6.63;;;8.80;82.10;;;;;;4993366;28;20045;-64
2022/11/25 08:57:33;;;;;;;;;;;8.80;81.30;;;;;;4992088;28;20586;-61
2022/11/25 08:59:59;;;;;;;18.88;8.00;;;8.90;80.80;;;;;;4997500;28;20000;-59
2022/11/25 09:02:24;;;;;;;25.30;9.37;;;9.00;81.20;;;;;;4993456;28;20031;-68
2022/11/25 09:04:50;;;;;;;13.87;7.90;;;9.00;81.90;;;;;;5026317;28;20109;-65
2022/11/25 09:07:16;;;;;;;26.13;7.90;;;9.10;80.40;;;;;;4989812;28;20038;-67
2022/11/25 09:09:42;;;;;;;23.30;7.82;;;9.10;81.30;;;;;;4994869;28;20276;-69
2022/11/25 09:12:08;;;;;;;27.00;8.18;;;9.20;81.40;;;;;;4992285;28;20042;-70
2022/11/25 09:14:34;;;;;;;27.77;8.10;;;9.20;81.30;;;;;;4989825;28;20042;-63
2022/11/25 09:17:00;;;;;;;23.67;8.53;;;9.30;81.40;;;;;;4991877;28;20288;-69
2022/11/25 09:19:26;;;;;;;;;;;9.30;81.50;;;;;;4998056;28;20453;-67
2022/11/25 09:21:53;;;;;;;26.80;8.13;;;9.40;80.90;;;;;;4995103;28;20349;-65
2022/11/25 09:24:18;;;;;;;;;;;9.40;81.00;;;;;;4989664;28;20049;-59
2022/11/25 09:26:44;;;;;;;24.38;8.57;;;9.40;80.70;;;;;;5003788;28;19913;-56
2022/11/25 09:29:12;;;;;;;28.10;10.23;;;9.40;80.60;;;;;;4993196;28;20023;-69
2022/11/25 09:31:38;;;;;;;26.50;9.10;;;9.50;80.70;;;;;;4996664;28;20453;-71
2022/11/25 09:34:04;;;;;;;70.53;12.73;;;9.60;80.50;;;;;;5000098;28;20150;-68
2022/11/25 09:36:29;;;;;;;55.93;11.33;;;9.60;80.30;;;;;;4990259;28;20181;-69
2022/11/25 09:38:55;;;;;;;33.30;10.20;;;9.60;80.10;;;;;;4990858;28;20076;-66
2022/11/25 09:46:40;;;;;;;32.80;9.90;;;9.70;80.80;;;;;;4996448;28;20034;-70
2022/11/25 09:47:22;;;;;;;20.15;6.90;;;9.80;80.10;;;;;;4999574;28;20056;-56
2022/11/25 09:50:00;;;;;;;18.42;6.85;;;9.80;79.90;;;;;;4996420;28;20115;-62
2022/11/25 09:52:54;;;;;;;17.20;7.38;;;9.90;80.10;;;;;;4991768;28;20038;-59
2022/11/25 09:55:23;;;;;;;22.85;9.38;;;9.90;79.60;;;;;;4997104;28;20031;-55
2022/11/25 09:58:42;;;;;;;36.72;10.70;;;10.00;79.50;;;;;;4992246;28;20115;-56
2022/11/25 10:01:17;;;;;;;26.80;10.90;;;10.00;79.80;;;;;;4977265;28;20039;-58
2022/11/25 10:03:47;;;;;;;24.63;11.00;;;10.00;79.80;;;;;;4992267;28;20434;-57
2022/11/25 10:06:25;;;;;;;23.27;9.98;;;10.00;80.30;;;;;;4995560;28;20030;-56
2022/11/25 10:08:59;;;;;;;23.88;10.27;;;9.90;80.40;;;;;;4985609;28;20018;-56
2022/11/25 10:11:46;;;;;;;23.77;10.65;;;10.00;80.50;;;;;;4988562;28;20120;-66
2022/11/25 10:14:18;;;;;;;22.15;10.45;;;10.10;80.00;;;;;;4994594;28;20021;-57
2022/11/25 10:16:52;;;;;;;38.35;16.77;;;10.10;80.70;;;;;;4990129;28;20034;-56
2022/11/25 10:19:23;;;;;;;45.40;20.88;;;10.10;80.20;;;;;;4989440;28;20026;-57
2022/11/25 10:21:50;;;;;;;20.40;9.93;;;10.10;79.80;;;;;;4983051;28;20032;-55
2022/11/25 10:24:20;;;;;;;;;;;10.20;79.10;;;;;;4991828;28;20046;-55
2022/11/25 10:27:03;;;;;;;32.13;13.55;;;10.20;80.00;;;;;;4991043;28;19960;-56
2022/11/25 10:29:30;;;;;;;26.13;11.60;;;10.10;79.60;;;;;;4986362;28;20034;-54
2022/11/25 10:32:25;;;;;;;26.88;12.00;;;10.20;80.90;;;;;;4989159;28;20042;-56
2022/11/25 10:34:57;;;;;;;32.20;14.85;;;10.20;80.00;;;;;;4988557;28;20537;-59
2022/11/25 10:37:29;;;;;;;33.05;13.13;;;10.20;79.60;;;;;;4988526;28;20027;-55
2022/11/25 10:39:55;;;;;;;21.90;8.63;;;10.30;79.10;;;;;;4987216;28;20433;-51
2022/11/25 10:42:23;;;;;;;23.73;9.40;;;10.40;79.70;;;;;;4988738;28;20029;-69
2022/11/25 10:44:49;;;;;;;22.27;9.25;;;10.40;80.10;;;;;;4986897;28;20117;-63
2022/11/25 10:47:36;;;;;;;23.02;11.73;;;10.50;80.10;;;;;;4987502;28;20046;-65
2022/11/25 10:50:04;;;;;;;19.13;8.38;;;10.50;80.00;;;;;;4989905;28;20085;-72
2022/11/25 10:52:38;;;;;;;21.08;9.68;;;10.60;79.00;;;;;;4987984;28;20061;-69
2022/11/25 10:55:32;;;;;;;18.02;9.95;;;10.60;79.10;;;;;;4988182;28;20066;-64
2022/11/25 10:57:58;;;;;;;21.92;10.57;;;10.70;78.90;;;;;;4987432;28;20123;-58
2022/11/25 11:00:37;;;;;;;27.65;12.25;;;10.60;77.90;;;;;;4989456;28;20018;-65
2022/11/25 11:03:19;;;;;;;21.40;12.00;;;10.60;77.60;;;;;;4991385;28;20034;-60
2022/11/25 11:05:48;;;;;;;21.80;10.95;;;10.70;77.60;;;;;;4986584;28;20025;-60
2022/11/25 11:08:35;;;;;;;25.80;12.73;;;10.70;77.60;;;;;;4989220;28;20121;-66
2022/11/25 11:11:27;;;;;;;29.35;12.50;;;10.70;78.30;;;;;;4987194;28;20058;-67
2022/11/25 11:14:18;;;;;;;23.40;11.25;;;10.70;79.10;;;;;;4987424;28;20049;-61
2022/11/25 11:16:54;;;;;;;22.65;11.77;;;10.80;79.00;;;;;;4989114;28;20502;-64
2022/11/25 11:19:28;;;;;;;32.42;14.10;;;10.80;79.20;;;;;;4986117;28;21524;-66
2022/11/25 11:22:12;;;;;;;21.88;11.45;;;10.80;79.10;;;;;;4984687;28;20034;-60
2022/11/25 11:24:40;;;;;;;22.10;10.65;;;10.90;78.70;;;;;;4990502;28;20057;-65
2022/11/25 11:27:15;;;;;;;24.23;11.63;;;10.80;79.10;;;;;;4990707;28;20117;-63
2022/11/25 11:29:40;;;;;;;23.17;11.80;;;10.80;78.70;;;;;;4988224;28;20564;-65
2022/11/25 11:32:18;;;;;;;23.20;12.53;;;10.80;79.30;;;;;;4984184;28;20034;-69
2022/11/25 11:35:05;;;;;;;32.05;14.68;;;10.90;79.10;;;;;;4993860;28;20045;-63
2022/11/25 11:37:49;;;;;;;26.38;12.98;;;10.90;78.90;;;;;;4990884;28;20121;-62
2022/11/25 11:40:32;;;;;;;28.83;13.00;;;10.80;78.60;;;;;;5019044;28;20121;-63
2022/11/25 11:43:28;;;;;;;30.52;13.80;;;10.90;79.00;;;;;;4989278;28;20801;-62
2022/11/25 11:46:03;;;;;;;21.45;9.90;;;10.90;79.10;;;;;;4989509;28;20506;-56
2022/11/25 11:48:39;;;;;;;21.80;8.70;;;11.00;79.40;;;;;;4989327;28;20024;-57
2022/11/25 11:51:23;;;;;;;17.98;9.40;;;11.10;80.20;;;;;;4990012;28;20454;-59
2022/11/25 11:54:08;;;;;;;21.35;9.80;;;11.10;78.70;;;;;;4990794;28;20449;-62
2022/11/25 11:56:45;;;;;;;23.65;9.18;;;11.10;79.60;;;;;;4993600;28;20084;-60
2022/11/25 11:59:47;;;;;;;18.13;8.57;;;11.10;80.70;;;;;;4986201;28;20031;-58
2022/11/25 12:02:39;;;;;;;18.50;9.77;;;11.10;81.10;;;;;;4988674;28;20046;-65
2022/11/25 12:05:11;;;;;;;26.17;11.63;;;11.10;80.00;;;;;;4990663;28;20026;-65
2022/11/25 12:08:10;;;;;;;19.33;10.98;;;11.10;79.40;;;;;;4990715;28;20113;-56
2022/11/25 12:11:17;;;;;;;25.63;16.75;;;11.10;79.50;;;;;;4990804;28;20176;-58
2022/11/25 12:14:23;;;;;;;27.35;13.85;;;11.00;79.20;;;;;;4985841;28;20068;-56
2022/11/25 12:16:56;;;;;;;24.23;11.00;;;11.00;79.90;;;;;;4983281;28;20046;-57
2022/11/25 12:19:49;;;;;;;19.80;10.68;;;11.00;81.30;;;;;;4987263;28;20031;-57
2022/11/25 12:22:18;;;;;;;23.80;11.63;;;11.00;81.50;;;;;;4984480;28;20023;-56
2022/11/25 12:24:57;;;;;;;18.73;10.30;;;11.10;81.40;;;;;;4984849;28;20022;-56
2022/11/25 12:27:30;;;;;;;22.92;10.90;;;11.10;82.20;;;;;;4983852;28;20057;-56
2022/11/25 12:30:15;;;;;;;28.70;14.32;;;11.10;81.50;;;;;;4985399;28;20038;-59
2022/11/25 12:32:49;;;;;;;22.33;12.32;;;11.20;81.10;;;;;;4988750;28;20037;-60
2022/11/25 12:35:47;;;;;;;25.02;11.77;;;11.20;81.20;;;;;;4987673;28;20057;-56
2022/11/25 12:38:27;;;;;;;30.63;17.52;;;11.20;80.80;;;;;;4988151;28;20030;-64
2022/11/25 12:41:14;;;;;;;26.92;14.98;;;11.20;80.80;;;;;;4992774;28;20026;-61
2022/11/25 12:43:44;;;;;;;31.20;17.07;;;11.20;81.50;;;;;;4989804;28;20076;-57
2022/11/25 12:46:16;;;;;;;26.48;12.40;;;11.20;82.70;;;;;;4997374;28;20124;-56
2022/11/25 12:48:42;;;;;;;35.83;17.67;;;11.30;82.10;;;;;;4994779;28;20023;-57
2022/11/25 12:51:14;;;;;;;;;;;11.30;81.40;;;;;;4992058;28;20391;-56
2022/11/25 12:54:05;;;;;;;33.65;14.80;;;11.30;82.70;;;;;;4996176;28;19960;-56
2022/11/25 12:57:01;;;;;;;17.23;9.88;;;11.30;81.90;;;;;;4992259;28;20069;-72
2022/11/25 12:59:45;;;;;;;19.40;9.55;;;11.20;81.20;;;;;;4979106;28;20047;-57
2022/11/25 13:02:24;;;;;;;21.45;9.82;;;11.20;81.80;;;;;;4986619;28;20030;-72
2022/11/25 13:05:11;;;;;;;24.02;11.93;;;11.20;81.90;;;;;;4990914;28;20053;-56
2022/11/25 13:07:45;;;;;;;21.42;10.55;;;11.20;82.50;;;;;;4997384;28;20033;-56